createdAt,value
2022-11-02T00:30:48.067Z,1007.43
2022-11-02T00:31:28.191Z,1007.41
2022-11-02T00:32:08.684Z,1007.42
2022-11-02T00:32:49.146Z,1007.42
2022-11-02T00:33:29.667Z,1007.41
2022-11-02T00:34:10.100Z,1007.46
2022-11-02T00:34:50.649Z,1007.45
2022-11-02T00:35:31.061Z,1007.45
2022-11-02T00:36:11.567Z,1007.44
2022-11-02T00:36:55.415Z,1007.35
2022-11-02T00:38:12.938Z,1007.42
2022-11-02T00:38:53.422Z,1007.43
2022-11-02T00:39:33.929Z,1007.45
2022-11-02T00:40:14.415Z,1007.45
2022-11-02T00:40:54.919Z,1007.45
2022-11-02T00:41:35.365Z,1007.5
2022-11-02T00:42:15.847Z,1007.5
2022-11-02T00:42:56.336Z,1007.52
2022-11-02T00:43:36.808Z,1007.57
2022-11-02T00:44:17.265Z,1007.56
2022-11-02T00:44:57.773Z,1007.48
2022-11-02T00:45:38.251Z,1007.51
2022-11-02T00:46:18.735Z,1007.54
2022-11-02T00:47:39.708Z,1007.56
2022-11-02T00:48:20.133Z,1007.58
2022-11-02T00:49:00.593Z,1007.56
2022-11-02T00:49:41.090Z,1007.6
2022-11-02T00:50:21.516Z,1007.56
2022-11-02T00:51:02.042Z,1007.47
2022-11-02T00:51:42.508Z,1007.5
2022-11-02T00:52:22.990Z,1007.43
2022-11-02T00:53:03.621Z,1007.5
2022-11-02T00:53:44.019Z,1007.5
2022-11-02T00:54:25.854Z,1007.51
2022-11-02T00:55:04.931Z,1007.46
2022-11-02T00:55:45.469Z,1007.49
2022-11-02T00:56:25.937Z,1007.47
2022-11-02T00:57:06.402Z,1007.53
2022-11-02T00:57:46.906Z,1007.5
2022-11-02T00:58:27.406Z,1007.47
2022-11-02T00:59:07.833Z,1007.58
2022-11-02T00:59:48.306Z,1007.55
2022-11-02T01:00:28.838Z,1007.58
2022-11-02T01:01:09.390Z,1007.6
2022-11-02T01:01:49.875Z,1007.53
2022-11-02T01:02:30.347Z,1007.63
2022-11-02T01:03:10.709Z,1007.6
2022-11-02T01:03:51.166Z,1007.61
2022-11-02T01:04:31.651Z,1007.59
2022-11-02T01:05:12.156Z,1007.56
2022-11-02T01:05:52.685Z,1007.57
2022-11-02T01:06:33.177Z,1007.67
2022-11-02T01:07:13.662Z,1007.66
2022-11-02T01:07:54.152Z,1007.72
2022-11-02T01:08:34.615Z,1007.71
2022-11-02T01:09:15.152Z,1007.72
2022-11-02T01:09:55.742Z,1007.68
2022-11-02T01:10:36.197Z,1007.72
2022-11-02T01:11:16.662Z,1007.73
2022-11-02T01:11:57.106Z,1007.75
2022-11-02T01:12:37.641Z,1007.79
2022-11-02T01:13:18.190Z,1007.75
2022-11-02T01:13:58.628Z,1007.79
2022-11-02T01:14:39.122Z,1007.84
2022-11-02T01:15:19.641Z,1007.8
2022-11-02T01:16:00.148Z,1007.78
2022-11-02T01:16:40.651Z,1007.79
2022-11-02T01:17:21.136Z,1007.8
2022-11-02T01:18:01.931Z,1007.81
2022-11-02T01:18:42.042Z,1007.78
2022-11-02T01:19:22.608Z,1007.75
2022-11-02T01:20:03.097Z,1007.77
2022-11-02T01:20:43.594Z,1007.81
2022-11-02T01:21:24.053Z,1007.77
2022-11-02T01:22:04.530Z,1007.76
2022-11-02T01:22:45.018Z,1007.81
2022-11-02T01:23:25.497Z,1007.79
2022-11-02T01:24:05.955Z,1007.76
2022-11-02T01:25:26.935Z,1007.77
2022-11-02T01:26:07.386Z,1007.73
2022-11-02T01:26:47.915Z,1007.73
2022-11-02T01:27:28.387Z,1007.74
2022-11-02T01:28:08.857Z,1007.78
2022-11-02T01:28:49.325Z,1007.75
2022-11-02T01:29:29.829Z,1007.72
2022-11-02T01:30:50.809Z,1007.72
2022-11-02T01:31:31.270Z,1007.78
2022-11-02T01:32:11.733Z,1007.64
2022-11-02T01:32:52.226Z,1007.65
2022-11-02T01:33:32.674Z,1007.64
2022-11-02T01:34:13.181Z,1007.67
2022-11-02T01:34:53.668Z,1007.66
2022-11-02T01:35:34.114Z,1007.65
2022-11-02T01:36:14.639Z,1007.62
2022-11-02T01:36:55.085Z,1007.64
2022-11-02T01:37:35.555Z,1007.63
2022-11-02T01:38:16.067Z,1007.7
2022-11-02T01:38:56.511Z,1007.68
2022-11-02T01:39:37.001Z,1007.66
2022-11-02T01:40:17.450Z,1007.61
2022-11-02T01:40:57.940Z,1007.67
2022-11-02T01:41:38.433Z,1007.65
2022-11-02T01:42:19.005Z,1007.67
2022-11-02T01:42:59.430Z,1007.65
2022-11-02T01:44:20.372Z,1007.7
2022-11-02T01:45:00.859Z,1007.71
2022-11-02T01:45:41.365Z,1007.68
2022-11-02T01:46:21.895Z,1007.68
2022-11-02T01:47:02.316Z,1007.66
2022-11-02T01:47:42.772Z,1007.67
2022-11-02T01:48:23.281Z,1007.66
2022-11-02T01:49:03.763Z,1007.71
2022-11-02T01:49:44.307Z,1007.69
2022-11-02T01:50:24.732Z,1007.64
2022-11-02T01:51:05.214Z,1007.67
2022-11-02T01:51:45.730Z,1007.69
2022-11-02T01:52:26.209Z,1007.67
2022-11-02T01:53:06.705Z,1007.69
2022-11-02T01:54:27.669Z,1007.68
2022-11-02T01:55:08.175Z,1007.65
2022-11-02T01:55:48.607Z,1007.67
2022-11-02T01:56:29.056Z,1007.65
2022-11-02T01:57:09.544Z,1007.68
2022-11-02T01:57:50.044Z,1007.62
2022-11-02T01:58:30.453Z,1007.61
2022-11-02T01:59:51.402Z,1007.6
2022-11-02T02:00:31.879Z,1007.58
2022-11-02T02:01:12.428Z,1007.58
2022-11-02T02:01:52.903Z,1007.58
2022-11-02T02:02:33.406Z,1007.58
2022-11-02T02:03:13.816Z,1007.59
2022-11-02T02:03:54.321Z,1007.63
2022-11-02T02:04:34.777Z,1007.6
2022-11-02T02:05:15.248Z,1007.62
2022-11-02T02:05:55.705Z,1007.66
2022-11-02T02:06:36.191Z,1007.65
2022-11-02T02:07:16.736Z,1007.67
2022-11-02T02:07:57.203Z,1007.62
2022-11-02T02:08:37.666Z,1007.64
2022-11-02T02:09:18.149Z,1007.67
2022-11-02T02:09:58.646Z,1007.66
2022-11-02T02:10:39.088Z,1007.64
2022-11-02T02:11:19.567Z,1007.68
2022-11-02T02:12:00.036Z,1007.67
2022-11-02T02:12:40.492Z,1007.68
2022-11-02T02:13:21.002Z,1007.64
2022-11-02T02:14:01.500Z,1007.65
2022-11-02T02:14:41.950Z,1007.69
2022-11-02T02:15:22.440Z,1007.71
2022-11-02T02:16:02.921Z,1007.7
2022-11-02T02:16:43.453Z,1007.74
2022-11-02T02:19:42.973Z,1007.69
2022-11-02T02:20:23.347Z,1007.76
2022-11-02T02:21:03.804Z,1007.75
2022-11-02T02:21:44.239Z,1007.7
2022-11-02T02:22:24.724Z,1007.77
2022-11-02T02:23:05.203Z,1007.69
2022-11-02T02:23:45.709Z,1007.74
2022-11-02T02:24:26.129Z,1007.77
2022-11-02T02:25:06.618Z,1007.79
2022-11-02T02:25:47.080Z,1007.8
2022-11-02T02:26:27.567Z,1007.82
2022-11-02T02:27:08.022Z,1007.79
2022-11-02T02:27:48.500Z,1007.74
2022-11-02T02:28:28.989Z,1007.78
2022-11-02T02:29:09.526Z,1007.81
2022-11-02T02:29:49.973Z,1007.78
2022-11-02T02:30:30.444Z,1007.7
2022-11-02T02:31:10.892Z,1007.76
2022-11-02T02:31:51.357Z,1007.74
2022-11-02T02:32:31.848Z,1007.7
2022-11-02T02:33:12.304Z,1007.73
2022-11-02T02:33:52.743Z,1007.72
2022-11-02T02:34:33.232Z,1007.7
2022-11-02T02:35:13.691Z,1007.66
2022-11-02T02:35:54.139Z,1007.65
2022-11-02T02:36:34.627Z,1007.66
2022-11-02T02:37:15.059Z,1007.67
2022-11-02T02:37:55.597Z,1007.69
2022-11-02T02:38:36.012Z,1007.69
2022-11-02T02:39:16.493Z,1007.64
2022-11-02T02:39:56.948Z,1007.64
2022-11-02T02:40:37.443Z,1007.66
2022-11-02T02:41:17.969Z,1007.62
2022-11-02T02:41:58.385Z,1007.65
2022-11-02T02:42:38.851Z,1007.66
2022-11-02T02:43:19.351Z,1007.63
2022-11-02T02:43:59.885Z,1007.62
2022-11-02T02:44:40.315Z,1007.68
2022-11-02T02:46:01.237Z,1007.66
2022-11-02T02:46:42.577Z,1007.66
2022-11-02T02:47:22.228Z,1007.63
2022-11-02T02:48:02.989Z,1007.66
2022-11-02T02:48:43.140Z,1007.69
2022-11-02T02:49:23.650Z,1007.7
2022-11-02T02:50:04.108Z,1007.71
2022-11-02T02:50:44.599Z,1007.63
2022-11-02T02:51:25.069Z,1007.63
2022-11-02T02:52:05.534Z,1007.66
2022-11-02T02:52:46.049Z,1007.72
2022-11-02T02:53:26.459Z,1007.69
2022-11-02T02:54:06.918Z,1007.69
2022-11-02T02:54:47.409Z,1007.73
2022-11-02T02:55:27.887Z,1007.68
2022-11-02T02:56:08.358Z,1007.74
2022-11-02T02:56:48.863Z,1007.75
2022-11-02T02:57:29.271Z,1007.78
2022-11-02T02:58:09.744Z,1007.81
2022-11-02T02:58:50.230Z,1007.78
2022-11-02T02:59:30.689Z,1007.76
2022-11-02T03:00:11.163Z,1007.8
2022-11-02T03:00:51.620Z,1007.83
2022-11-02T03:01:32.238Z,1007.86
2022-11-02T03:02:12.641Z,1007.82
2022-11-02T03:02:53.045Z,1007.85
2022-11-02T03:03:33.553Z,1007.83
2022-11-02T03:04:14.015Z,1007.82
2022-11-02T03:04:54.500Z,1007.83
2022-11-02T03:06:15.509Z,1007.79
2022-11-02T03:06:55.926Z,1007.82
2022-11-02T03:07:36.376Z,1007.84
2022-11-02T03:08:16.840Z,1007.83
2022-11-02T03:08:57.325Z,1007.82
2022-11-02T03:09:37.776Z,1007.85
2022-11-02T03:10:18.222Z,1007.81
2022-11-02T03:10:58.714Z,1007.8
2022-11-02T03:11:39.171Z,1007.86
2022-11-02T03:12:19.660Z,1007.84
2022-11-02T03:13:00.130Z,1007.81
2022-11-02T03:13:40.618Z,1007.84
2022-11-02T03:14:21.069Z,1007.79
2022-11-02T03:15:01.612Z,1007.84
2022-11-02T03:15:42.047Z,1007.8
2022-11-02T03:16:22.511Z,1007.83
2022-11-02T03:17:02.964Z,1007.85
2022-11-02T03:17:43.443Z,1007.85
2022-11-02T03:18:23.956Z,1007.89
2022-11-02T03:19:04.421Z,1007.83
2022-11-02T03:19:44.849Z,1007.86
2022-11-02T03:20:25.319Z,1007.88
2022-11-02T03:21:05.804Z,1007.86
2022-11-02T03:21:46.306Z,1007.9
2022-11-02T03:22:26.766Z,1007.92
2022-11-02T03:23:07.794Z,1007.92
2022-11-02T03:23:48.275Z,1007.91
2022-11-02T03:24:28.778Z,1007.92
2022-11-02T03:25:09.183Z,1007.89
2022-11-02T03:25:49.713Z,1007.95
2022-11-02T03:26:30.175Z,1007.97
2022-11-02T03:27:10.653Z,1007.96
2022-11-02T03:27:51.104Z,1007.94
2022-11-02T03:28:31.585Z,1007.93
2022-11-02T03:29:12.067Z,1007.94
2022-11-02T03:29:52.563Z,1007.95
2022-11-02T03:30:33.009Z,1007.98
2022-11-02T03:31:13.469Z,1007.98
2022-11-02T03:31:53.979Z,1008.01
2022-11-02T03:32:34.417Z,1008
2022-11-02T03:33:14.885Z,1008
2022-11-02T03:33:55.367Z,1008.13
2022-11-02T03:34:35.880Z,1008.1
2022-11-02T03:35:16.312Z,1008.1
2022-11-02T03:35:56.830Z,1008.13
2022-11-02T03:37:17.734Z,1008.17
2022-11-02T03:37:58.233Z,1008.15
2022-11-02T03:38:38.658Z,1008.12
2022-11-02T03:39:19.153Z,1008.13
2022-11-02T03:39:59.584Z,1008.14
2022-11-02T03:40:40.054Z,1008.11
2022-11-02T03:41:20.517Z,1008.19
2022-11-02T03:42:00.968Z,1008.15
2022-11-02T03:42:41.443Z,1008.13
2022-11-02T03:43:21.907Z,1008.14
2022-11-02T03:44:02.421Z,1008.12
2022-11-02T03:44:42.892Z,1008.1
2022-11-02T03:45:23.427Z,1008.15
2022-11-02T03:46:03.865Z,1008.13
2022-11-02T03:47:24.873Z,1008.14
2022-11-02T03:48:05.696Z,1008.17
2022-11-02T03:48:45.800Z,1008.17
2022-11-02T03:49:26.286Z,1008.2
2022-11-02T03:50:06.837Z,1008.19
2022-11-02T03:50:47.203Z,1008.19
2022-11-02T03:51:27.685Z,1008.19
2022-11-02T03:52:08.162Z,1008.25
2022-11-02T03:52:48.687Z,1008.19
2022-11-02T03:53:29.091Z,1008.26
2022-11-02T03:54:09.559Z,1008.29
2022-11-02T03:54:50.033Z,1008.25
2022-11-02T03:55:30.487Z,1008.31
2022-11-02T03:56:11.039Z,1008.32
2022-11-02T03:56:51.538Z,1008.3
2022-11-02T03:57:31.997Z,1008.35
2022-11-02T03:58:12.456Z,1008.09
2022-11-02T03:58:52.945Z,1008.31
2022-11-02T03:59:33.437Z,1008.3
2022-11-02T04:00:13.892Z,1008.3
2022-11-02T04:00:54.352Z,1008.24
2022-11-02T04:01:34.868Z,1008.23
2022-11-02T04:02:15.418Z,1008.38
2022-11-02T04:02:55.788Z,1008.43
2022-11-02T04:03:36.284Z,1008.35
2022-11-02T04:04:16.733Z,1008.38
2022-11-02T04:04:57.179Z,1008.33
2022-11-02T04:05:37.626Z,1008.38
2022-11-02T04:06:18.149Z,1008.42
2022-11-02T04:06:58.757Z,1008.42
2022-11-02T04:07:39.127Z,1008.44
2022-11-02T04:08:19.616Z,1008.38
2022-11-02T04:09:00.098Z,1008.45
2022-11-02T04:09:40.563Z,1008.41
2022-11-02T04:10:21.035Z,1008.43
2022-11-02T04:11:01.493Z,1008.34
2022-11-02T04:11:42.005Z,1008.51
2022-11-02T04:12:22.464Z,1008.51
2022-11-02T04:13:02.952Z,1008.46
2022-11-02T04:13:43.405Z,1008.44
2022-11-02T04:14:23.897Z,1008.58
2022-11-02T04:15:04.406Z,1008.44
2022-11-02T04:15:44.830Z,1008.53
2022-11-02T04:16:28.129Z,1008.56
2022-11-02T04:17:05.821Z,1008.54
2022-11-02T04:17:46.286Z,1008.56
2022-11-02T04:18:26.788Z,1008.54
2022-11-02T04:19:07.274Z,1008.62
2022-11-02T04:19:49.576Z,1008.62
2022-11-02T04:20:28.238Z,1008.56
2022-11-02T04:21:08.665Z,1008.5
2022-11-02T04:21:49.193Z,1008.58
2022-11-02T04:22:29.673Z,1008.62
2022-11-02T04:23:10.164Z,1008.61
2022-11-02T04:23:50.673Z,1008.68
2022-11-02T04:24:31.144Z,1008.64
2022-11-02T04:25:11.598Z,1008.63
2022-11-02T04:25:52.061Z,1008.69
2022-11-02T04:26:32.544Z,1008.66
2022-11-02T04:27:16.709Z,1008.71
2022-11-02T04:28:33.964Z,1008.74
2022-11-02T04:29:14.425Z,1008.75
2022-11-02T04:29:54.936Z,1008.7
2022-11-02T04:30:35.358Z,1008.72
2022-11-02T04:31:15.900Z,1008.72
2022-11-02T04:31:56.308Z,1008.78
2022-11-02T04:32:36.802Z,1008.77
2022-11-02T04:33:17.281Z,1008.67
2022-11-02T04:33:57.770Z,1008.63
2022-11-02T04:34:38.259Z,1008.79
2022-11-02T04:35:18.884Z,1008.82
2022-11-02T04:35:59.366Z,1008.78
2022-11-02T04:36:39.820Z,1008.96
2022-11-02T04:37:20.319Z,1008.82
2022-11-02T04:38:00.788Z,1008.86
2022-11-02T04:38:41.384Z,1008.85
2022-11-02T04:39:21.853Z,1008.82
2022-11-02T04:40:02.312Z,1008.86
2022-11-02T04:40:42.841Z,1008.92
2022-11-02T04:41:23.263Z,1008.94
2022-11-02T04:42:03.741Z,1008.97
2022-11-02T04:42:44.195Z,1008.85
2022-11-02T04:43:24.651Z,1008.99
2022-11-02T04:44:05.129Z,1008.91
2022-11-02T04:44:45.602Z,1008.96
2022-11-02T04:45:26.065Z,1008.92
2022-11-02T04:46:06.546Z,1008.97
2022-11-02T04:46:47.077Z,1008.95
2022-11-02T04:47:27.610Z,1009
2022-11-02T04:48:08.175Z,1008.95
2022-11-02T04:48:48.498Z,1009.01
2022-11-02T04:49:28.999Z,1008.93
2022-11-02T04:50:09.503Z,1008.91
2022-11-02T04:50:49.963Z,1009.01
2022-11-02T04:51:30.425Z,1009.02
2022-11-02T04:52:10.989Z,1009
2022-11-02T04:52:51.405Z,1008.98
2022-11-02T04:53:31.960Z,1009.07
2022-11-02T04:54:12.406Z,1009.08
2022-11-02T04:54:52.876Z,1009.06
2022-11-02T04:55:33.304Z,1009.02
2022-11-02T04:56:13.799Z,1009.03
2022-11-02T04:56:54.248Z,1009.18
2022-11-02T04:57:34.777Z,1009.19
2022-11-02T04:58:15.212Z,1009.18
2022-11-02T04:58:55.681Z,1009.21
2022-11-02T04:59:36.213Z,1009.23
2022-11-02T05:00:16.682Z,1009.24
2022-11-02T05:00:57.180Z,1009.16
2022-11-02T05:01:37.743Z,1009.2
2022-11-02T05:02:18.342Z,1009.21
2022-11-02T05:02:58.664Z,1009.23
2022-11-02T05:03:39.095Z,1009.24
2022-11-02T05:04:19.546Z,1009.13
2022-11-02T05:05:00.082Z,1009.28
2022-11-02T05:05:40.543Z,1009.28
2022-11-02T05:06:20.995Z,1009.25
2022-11-02T05:07:01.982Z,1009.19
2022-11-02T05:07:41.900Z,1009.24
2022-11-02T05:08:22.399Z,1009.26
2022-11-02T05:09:02.961Z,1009.26
2022-11-02T05:09:43.421Z,1009.28
2022-11-02T05:10:23.991Z,1009.26
2022-11-02T05:11:04.425Z,1009.17
2022-11-02T05:11:44.873Z,1009.28
2022-11-02T05:12:29.120Z,1009.31
2022-11-02T05:13:05.849Z,1009.27
2022-11-02T05:13:46.333Z,1009.27
2022-11-02T05:14:26.794Z,1009.26
2022-11-02T05:15:07.251Z,1009.3
2022-11-02T05:15:47.758Z,1009.28
2022-11-02T05:16:28.199Z,1009.29
2022-11-02T05:17:08.659Z,1009.29
2022-11-02T05:17:49.202Z,1009.26
2022-11-02T05:18:29.657Z,1009.28
2022-11-02T05:19:10.930Z,1009.24
2022-11-02T05:19:50.623Z,1009.28
2022-11-02T05:20:31.109Z,1009.31
2022-11-02T05:21:11.635Z,1009.34
2022-11-02T05:21:52.090Z,1009.35
2022-11-02T05:22:32.634Z,1009.31
2022-11-02T05:23:13.069Z,1009.32
2022-11-02T05:23:53.574Z,1009.35
2022-11-02T05:24:34.008Z,1009.3
2022-11-02T05:25:14.489Z,1009.35
2022-11-02T05:25:55.035Z,1009.35
2022-11-02T05:26:35.564Z,1009.36
2022-11-02T05:27:16.146Z,1009.3
2022-11-02T05:28:37.029Z,1009.34
2022-11-02T05:29:17.520Z,1009.26
2022-11-02T05:29:58.005Z,1009.31
2022-11-02T05:30:38.458Z,1009.35
2022-11-02T05:31:18.929Z,1009.33
2022-11-02T05:31:59.437Z,1009.32
2022-11-02T05:32:39.908Z,1009.37
2022-11-02T05:33:20.397Z,1009.32
2022-11-02T05:34:01.000Z,1009.38
2022-11-02T05:34:41.408Z,1009.34
2022-11-02T05:35:21.891Z,1009.44
2022-11-02T05:36:02.353Z,1009.45
2022-11-02T05:36:42.866Z,1009.45
2022-11-02T05:37:23.320Z,1009.43
2022-11-02T05:38:03.835Z,1009.45
2022-11-02T05:38:44.424Z,1009.47
2022-11-02T05:39:24.796Z,1009.48
2022-11-02T05:40:05.320Z,1009.48
2022-11-02T05:40:45.741Z,1009.48
2022-11-02T05:41:26.242Z,1009.47
2022-11-02T05:42:06.696Z,1009.48
2022-11-02T05:42:47.201Z,1009.51
2022-11-02T05:43:27.707Z,1009.48
2022-11-02T05:44:08.157Z,1009.51
2022-11-02T05:44:48.693Z,1009.5
2022-11-02T05:45:29.129Z,1009.62
2022-11-02T05:46:09.699Z,1009.59
2022-11-02T05:46:50.230Z,1009.53
2022-11-02T05:47:30.694Z,1009.56
2022-11-02T05:48:11.214Z,1009.58
2022-11-02T05:48:51.657Z,1009.58
2022-11-02T05:49:32.153Z,1009.54
2022-11-02T05:50:12.651Z,1009.6
2022-11-02T05:50:53.106Z,1009.62
2022-11-02T05:51:33.629Z,1009.59
2022-11-02T05:52:14.056Z,1009.62
2022-11-02T05:52:54.546Z,1009.66
2022-11-02T06:32:06.708Z,1010.16
2022-11-02T06:32:47.132Z,1010.12
2022-11-02T06:33:27.557Z,1010.19
2022-11-02T06:34:08.025Z,1010.22
2022-11-02T06:34:48.465Z,1010.24
2022-11-02T06:35:28.985Z,1010.24
2022-11-02T06:36:09.438Z,1010.24
2022-11-02T06:36:49.976Z,1010.24
2022-11-02T06:37:30.463Z,1010.25
2022-11-02T06:38:10.933Z,1010.25
2022-11-02T06:38:51.393Z,1010.23
2022-11-02T06:39:31.901Z,1010.21
2022-11-02T06:40:12.341Z,1010.29
2022-11-02T06:40:52.843Z,1010.27
2022-11-02T06:41:33.298Z,1010.27
2022-11-02T06:42:13.782Z,1010.35
2022-11-02T06:43:03.529Z,1010.38
2022-11-02T06:43:34.709Z,1010.38
2022-11-02T06:44:15.176Z,1010.39
2022-11-02T06:44:55.672Z,1010.35
2022-11-02T06:45:36.126Z,1010.42
2022-11-02T06:46:16.689Z,1010.45
2022-11-02T06:46:57.196Z,1010.44
2022-11-02T06:47:37.715Z,1010.34
2022-11-02T06:48:18.210Z,1010.43
2022-11-02T06:48:58.830Z,1010.42
2022-11-02T06:49:39.267Z,1010.43
2022-11-02T06:50:19.778Z,1010.44
2022-11-02T06:51:00.283Z,1010.42
2022-11-02T06:51:40.795Z,1010.45
2022-11-02T06:52:21.291Z,1010.46
2022-11-02T06:53:02.013Z,1010.51
2022-11-02T06:53:42.203Z,1010.5
2022-11-02T06:54:22.774Z,1010.56
2022-11-02T06:55:03.156Z,1010.52
2022-11-02T06:55:43.677Z,1010.61
2022-11-02T06:56:24.204Z,1010.61
2022-11-02T06:57:04.646Z,1010.64
2022-11-02T06:57:45.145Z,1010.71
2022-11-02T06:58:25.672Z,1010.64
2022-11-02T06:59:06.141Z,1010.72
2022-11-02T06:59:50.010Z,1010.78
2022-11-02T07:00:27.173Z,1010.72
2022-11-02T07:01:07.752Z,1010.79
2022-11-02T07:01:48.262Z,1010.65
2022-11-02T07:02:28.745Z,1010.74
2022-11-02T07:03:09.402Z,1010.73
2022-11-02T07:03:49.820Z,1010.67
2022-11-02T07:04:30.232Z,1010.8
2022-11-02T07:05:10.739Z,1010.82
2022-11-02T07:05:51.264Z,1010.85
2022-11-02T07:06:31.719Z,1010.92
2022-11-02T07:07:12.231Z,1010.92
2022-11-02T07:08:33.197Z,1010.95
2022-11-02T07:09:13.725Z,1010.97
2022-11-02T07:09:54.355Z,1011
2022-11-02T07:10:34.832Z,1011.03
2022-11-02T07:11:15.311Z,1011.07
2022-11-02T07:11:55.813Z,1010.96
2022-11-02T07:12:36.316Z,1011.04
2022-11-02T07:13:16.805Z,1011.09
2022-11-02T07:13:57.284Z,1011.09
2022-11-02T07:14:37.762Z,1011.1
2022-11-02T07:15:18.301Z,1011.11
2022-11-02T07:15:58.773Z,1011.11
2022-11-02T07:16:39.278Z,1011.17
2022-11-02T07:17:19.774Z,1011.18
2022-11-02T07:18:00.380Z,1011.12
2022-11-02T07:18:40.980Z,1011.15
2022-11-02T07:19:21.464Z,1011.18
2022-11-02T07:20:01.980Z,1011.21
2022-11-02T07:20:42.577Z,1011.21
2022-11-02T07:21:23.058Z,1011.19
2022-11-02T07:22:03.732Z,1011.19
2022-11-02T07:22:44.241Z,1011.18
2022-11-02T07:23:24.737Z,1011.24
2022-11-02T07:24:05.223Z,1011.23
2022-11-02T07:24:45.714Z,1011.24
2022-11-02T07:25:26.221Z,1011.24
2022-11-02T07:26:06.689Z,1011.24
2022-11-02T07:26:47.179Z,1011.29
2022-11-02T07:27:27.644Z,1011.28
2022-11-02T07:28:08.149Z,1011.27
2022-11-02T07:28:48.644Z,1011.3
2022-11-02T07:29:29.136Z,1011.35
2022-11-02T07:30:09.715Z,1011.36
2022-11-02T07:30:50.241Z,1011.35
2022-11-02T07:31:30.747Z,1011.37
2022-11-02T07:32:11.233Z,1011.36
2022-11-02T07:32:51.730Z,1011.36
2022-11-02T07:33:32.348Z,1011.38
2022-11-02T07:34:16.839Z,1011.3
2022-11-02T07:34:53.336Z,1011.37
2022-11-02T07:35:33.902Z,1011.35
2022-11-02T07:36:14.350Z,1011.45
2022-11-02T07:36:54.846Z,1011.37
2022-11-02T07:37:35.349Z,1011.41
2022-11-02T07:38:15.802Z,1011.4
2022-11-02T07:39:36.757Z,1011.48
2022-11-02T07:40:17.331Z,1011.52
2022-11-02T07:40:57.869Z,1011.49
2022-11-02T07:41:38.353Z,1011.5
2022-11-02T07:42:18.877Z,1011.54
2022-11-02T07:42:59.446Z,1011.55
2022-11-02T07:43:41.317Z,1011.59
2022-11-02T07:44:20.414Z,1011.6
2022-11-02T07:45:00.861Z,1011.53
2022-11-02T07:45:41.348Z,1011.61
2022-11-02T07:46:21.845Z,1011.66
2022-11-02T07:47:02.380Z,1011.57
2022-11-02T07:47:42.886Z,1011.64
2022-11-02T07:48:23.383Z,1011.71
2022-11-02T07:49:03.865Z,1011.67
2022-11-02T07:49:44.358Z,1011.63
2022-11-02T07:50:24.827Z,1011.7
2022-11-02T07:51:05.305Z,1011.71
2022-11-02T07:51:45.799Z,1011.7
2022-11-02T07:52:26.288Z,1011.74
2022-11-02T07:53:07.147Z,1011.75
2022-11-02T07:53:47.899Z,1011.73
2022-11-02T07:54:28.374Z,1011.8
2022-11-02T07:55:08.929Z,1011.68
2022-11-02T07:55:49.383Z,1011.78
2022-11-02T07:56:29.913Z,1011.89
2022-11-02T07:57:10.315Z,1011.8
2022-11-02T07:57:50.838Z,1011.92
2022-11-02T07:58:31.347Z,1011.88
2022-11-02T07:59:11.827Z,1011.89
2022-11-02T07:59:52.356Z,1011.91
2022-11-02T08:00:32.857Z,1011.86
2022-11-02T08:01:13.428Z,1011.92
2022-11-02T08:01:53.934Z,1011.92
2022-11-02T08:05:03.560Z,1011.97
2022-11-02T08:05:43.945Z,1012.04
2022-11-02T08:06:25.281Z,1012.02
2022-11-02T08:07:05.787Z,1012.01
2022-11-02T08:07:46.435Z,1012.05
2022-11-02T08:08:27.022Z,1012.04
2022-11-02T08:09:07.550Z,1012.02
2022-11-02T08:09:48.291Z,1012.05
2022-11-02T08:10:29.025Z,1012.1
2022-11-02T08:11:09.674Z,1012.15
2022-11-02T08:11:50.228Z,1012.16
2022-11-02T08:12:31.084Z,1012.18
2022-11-02T08:13:11.752Z,1012.1
2022-11-02T08:13:52.263Z,1012.15
2022-11-02T08:14:32.794Z,1012.22
2022-11-02T08:15:13.373Z,1012.27
2022-11-02T08:15:54.453Z,1012.23
2022-11-02T08:16:35.039Z,1012.31
2022-11-02T08:17:15.561Z,1012.3
2022-11-02T08:17:56.049Z,1012.29
2022-11-02T08:18:36.697Z,1012.28
2022-11-02T08:19:17.152Z,1012.22
2022-11-02T08:19:57.755Z,1012.31
2022-11-02T08:20:38.262Z,1012.31
2022-11-02T08:21:19.751Z,1012.27
2022-11-02T08:22:00.374Z,1012.27
2022-11-02T08:22:40.921Z,1012.34
2022-11-02T08:23:21.387Z,1012.32
2022-11-02T08:24:01.969Z,1012.27
2022-11-02T08:24:42.501Z,1012.3
2022-11-02T08:25:23.132Z,1012.24
2022-11-02T08:26:03.695Z,1012.27
2022-11-02T08:26:45.309Z,1012.22
2022-11-02T08:27:24.787Z,1012.28
2022-11-02T08:31:00.102Z,1012.28
2022-11-02T08:31:40.260Z,1012.29
2022-11-02T08:32:21.985Z,1012.4
2022-11-02T08:33:03.207Z,1012.28
2022-11-02T08:33:43.795Z,1012.26
2022-11-02T08:34:24.390Z,1012.2
2022-11-02T08:41:41.605Z,1012.4
2022-11-02T08:42:21.946Z,1012.37
2022-11-02T08:43:02.634Z,1012.38
2022-11-02T08:43:43.117Z,1012.43
2022-11-02T08:44:23.548Z,1012.43
2022-11-02T08:45:05.184Z,1012.43
2022-11-02T08:46:26.335Z,1012.42
2022-11-02T08:47:09.209Z,1012.44
2022-11-02T08:47:47.756Z,1012.42
2022-11-02T08:48:28.353Z,1012.47
2022-11-02T08:49:08.998Z,1012.42
2022-11-02T08:49:49.578Z,1012.5
2022-11-02T08:50:30.025Z,1012.42
2022-11-02T08:51:10.580Z,1012.4
2022-11-02T08:51:52.051Z,1012.46
2022-11-02T08:52:34.636Z,1012.38
2022-11-02T08:53:13.679Z,1012.4
2022-11-02T08:53:54.188Z,1012.45
2022-11-02T08:54:34.692Z,1012.47
2022-11-02T08:55:16.031Z,1012.4
2022-11-02T08:55:56.637Z,1012.46
2022-11-02T08:56:37.355Z,1012.52
2022-11-02T08:57:17.925Z,1012.41
2022-11-02T08:57:58.451Z,1012.38
2022-11-02T08:58:39.024Z,1012.44
2022-11-02T08:59:19.561Z,1012.47
2022-11-02T09:00:00.540Z,1012.36
2022-11-02T09:00:40.986Z,1012.45
2022-11-02T09:02:55.817Z,1012.47
2022-11-02T09:03:37.394Z,1012.49
2022-11-02T09:04:17.896Z,1012.61
2022-11-02T09:04:59.114Z,1012.49
2022-11-02T09:05:39.741Z,1012.53
2022-11-02T09:06:21.635Z,1012.57
2022-11-02T09:07:02.649Z,1012.6
2022-11-02T09:07:43.172Z,1012.64
2022-11-02T09:11:18.228Z,1012.6
2022-11-02T09:11:59.488Z,1012.61
2022-11-02T09:15:02.963Z,1012.64
2022-11-02T09:15:43.661Z,1012.64
2022-11-02T09:16:24.908Z,1012.55
2022-11-02T09:17:05.977Z,1012.65
2022-11-02T09:17:47.516Z,1012.63
2022-11-02T09:18:30.254Z,1012.67
2022-11-02T09:19:11.403Z,1012.65
2022-11-02T09:19:52.554Z,1012.72
2022-11-02T09:20:34.158Z,1012.7
2022-11-02T09:23:03.170Z,1012.72
2022-11-02T09:23:50.561Z,1012.75
2022-11-02T09:24:31.312Z,1012.69
2022-11-02T09:25:11.867Z,1012.69
2022-11-02T09:27:43.616Z,1012.72
2022-11-02T09:28:24.339Z,1012.76
2022-11-02T09:29:05.088Z,1012.82
2022-11-02T09:29:45.567Z,1012.81
2022-11-02T09:30:26.170Z,1012.75
2022-11-02T09:31:08.853Z,1012.79
2022-11-02T09:31:47.487Z,1012.81
2022-11-02T09:32:28.060Z,1012.82
2022-11-02T09:33:08.697Z,1012.76
2022-11-02T09:33:49.294Z,1012.71
2022-11-02T09:34:29.814Z,1012.75
2022-11-02T09:35:10.556Z,1012.66
2022-11-02T09:35:51.053Z,1012.65
2022-11-02T09:36:31.693Z,1012.63
2022-11-02T09:39:45.655Z,1012.71
2022-11-02T09:40:26.208Z,1012.63
2022-11-02T09:41:06.911Z,1012.73
2022-11-02T09:41:50.080Z,1012.74
2022-11-02T09:42:30.719Z,1012.71
2022-11-02T09:43:11.233Z,1012.71
2022-11-02T09:46:12.565Z,1012.74
2022-11-02T09:47:17.889Z,1012.7
2022-11-02T09:48:11.136Z,1012.74
2022-11-02T09:48:25.122Z,1012.68
2022-11-02T09:48:58.601Z,1012.78
2022-11-02T09:52:27.768Z,1012.73
2022-11-02T09:53:08.362Z,1012.82
2022-11-02T09:53:49.000Z,1012.76
2022-11-02T09:54:29.522Z,1012.81
2022-11-02T09:55:12.080Z,1012.82
2022-11-02T09:55:53.035Z,1012.81
2022-11-02T09:56:33.667Z,1012.8
2022-11-02T09:57:14.222Z,1012.8
2022-11-02T09:57:54.777Z,1012.78
2022-11-02T09:58:35.326Z,1012.86
2022-11-02T09:59:15.897Z,1012.89
2022-11-02T09:59:56.494Z,1012.85
2022-11-02T10:00:37.074Z,1012.83
2022-11-02T10:01:17.887Z,1012.85
2022-11-02T10:01:58.351Z,1012.85
2022-11-02T10:02:38.850Z,1012.8
2022-11-02T10:03:19.373Z,1012.86
2022-11-02T10:03:59.952Z,1012.84
2022-11-02T10:04:40.506Z,1012.89